createdAt,value
2023-01-12T01:19:20.975Z,915.00
2023-01-12T01:21:20.884Z,915.00
2023-01-12T01:22:20.879Z,915.00
2023-01-12T01:23:20.840Z,915.00
2023-01-12T01:24:20.821Z,914.00
2023-01-12T01:25:20.840Z,909.00
2023-01-12T01:26:20.784Z,907.00
2023-01-12T01:27:20.771Z,904.00
2023-01-12T01:28:20.760Z,903.00
2023-01-12T01:29:20.731Z,903.00
2023-01-12T01:30:20.700Z,903.00
2023-01-12T01:31:20.771Z,905.00
2023-01-12T01:32:20.663Z,907.00
2023-01-12T01:33:20.675Z,907.00
2023-01-12T01:35:20.604Z,905.00
2023-01-12T01:36:20.600Z,902.00
2023-01-12T01:37:20.572Z,900.00
2023-01-12T01:38:20.549Z,897.00
2023-01-12T01:39:20.542Z,897.00
2023-01-12T01:40:20.506Z,899.00
2023-01-12T01:41:20.485Z,899.00
2023-01-12T01:42:20.487Z,897.00
2023-01-12T01:43:20.447Z,895.00
2023-01-12T01:44:20.430Z,894.00
2023-01-12T01:45:20.409Z,894.00
2023-01-12T01:47:20.377Z,894.00
2023-01-12T01:48:20.354Z,894.00
2023-01-12T01:49:20.354Z,895.00
2023-01-12T01:50:20.305Z,896.00
2023-01-12T01:51:20.283Z,896.00
2023-01-12T01:52:20.265Z,895.00
2023-01-12T01:53:20.248Z,893.00
2023-01-12T01:54:20.237Z,891.00
2023-01-12T01:56:20.171Z,892.00
2023-01-12T01:57:20.145Z,889.00
2023-01-12T01:58:20.116Z,885.00
2023-01-12T01:59:20.099Z,885.00
2023-01-12T02:00:20.097Z,884.00
2023-01-12T02:01:20.291Z,884.00
2023-01-12T02:02:20.133Z,885.00
2023-01-12T02:03:20.012Z,887.00
2023-01-12T02:04:19.988Z,888.00
2023-01-12T02:05:20.008Z,889.00
2023-01-12T02:06:19.942Z,883.00
2023-01-12T02:07:19.933Z,885.00
2023-01-12T02:08:19.904Z,884.00
2023-01-12T02:09:19.902Z,883.00
2023-01-12T02:10:19.865Z,884.00
2023-01-12T02:11:19.839Z,883.00
2023-01-12T02:12:19.819Z,881.00
2023-01-12T02:13:19.802Z,882.00
2023-01-12T02:14:19.779Z,878.00
2023-01-12T02:15:19.762Z,879.00
2023-01-12T02:16:19.779Z,878.00
2023-01-12T02:17:19.724Z,877.00
2023-01-12T02:18:19.692Z,875.00
2023-01-12T02:19:19.673Z,875.00
2023-01-12T02:20:19.662Z,874.00
2023-01-12T02:21:19.650Z,873.00
2023-01-12T02:22:19.603Z,873.00
2023-01-12T02:23:19.573Z,874.00
2023-01-12T02:24:19.565Z,877.00
2023-01-12T02:25:19.529Z,877.00
2023-01-12T02:26:19.516Z,872.00
2023-01-12T02:27:19.475Z,872.00
2023-01-12T02:28:19.452Z,870.00
2023-01-12T02:29:19.427Z,870.00
2023-01-12T02:30:19.401Z,868.00
2023-01-12T02:31:19.429Z,868.00
2023-01-12T02:32:19.360Z,868.00
2023-01-12T02:33:19.340Z,865.00
2023-01-12T02:34:19.343Z,864.00
2023-01-12T02:35:19.290Z,859.00
2023-01-12T02:36:19.266Z,858.00
2023-01-12T02:37:19.395Z,859.00
2023-01-12T02:38:19.225Z,860.00
2023-01-12T02:39:19.201Z,863.00
2023-01-12T02:40:19.181Z,863.00
2023-01-12T02:41:19.158Z,861.00
2023-01-12T02:42:19.134Z,861.00
2023-01-12T02:43:19.117Z,858.00
2023-01-12T02:44:19.112Z,859.00
2023-01-12T02:45:19.073Z,856.00
2023-01-12T02:46:19.098Z,856.00
2023-01-12T02:47:19.021Z,857.00
2023-01-12T02:48:18.998Z,857.00
2023-01-12T02:49:18.972Z,855.00
2023-01-12T02:50:18.947Z,855.00
2023-01-12T02:51:18.933Z,855.00
2023-01-12T02:52:18.903Z,858.00
2023-01-12T02:53:18.916Z,858.00
2023-01-12T02:54:18.858Z,854.00
2023-01-12T02:55:18.816Z,852.00
2023-01-12T02:56:18.797Z,852.00
2023-01-12T02:57:18.778Z,852.00
2023-01-12T02:58:18.757Z,853.00
2023-01-12T02:59:18.743Z,852.00
2023-01-12T03:00:18.697Z,852.00
2023-01-12T03:01:18.774Z,853.00
2023-01-12T03:02:18.656Z,852.00
